Time;durP1;ratioP1;P1;durP2;ratioP2;P2;SDS_P1;SDS_P2;PMS_P1;PMS_P2;Temp;Humidity;BMP_temperature;BMP_pressure;BME280_temperature;BME280_humidity;BME280_pressure;Samples;Min_cycle;Max_cycle;Signal;HPM_P1;HPM_P2
2023/10/27 00:00:39;;;;;;;0.20;0.20;;;8.60;99.90;;;;;;5046306;28;20484;-86
2023/10/27 00:03:05;;;;;;;0.20;0.20;;;8.60;99.90;;;;;;5048638;28;20265;-85
2023/10/27 00:05:31;;;;;;;0.20;0.20;;;8.60;99.90;;;;;;5047838;28;20256;-85
2023/10/27 00:07:57;;;;;;;0.20;0.20;;;8.50;99.90;;;;;;5044328;28;20175;-84
2023/10/27 00:10:23;;;;;;;0.20;0.20;;;8.50;99.90;;;;;;5046782;28;20790;-85
2023/10/27 00:12:49;;;;;;;0.20;0.20;;;8.50;99.90;;;;;;5051967;28;20498;-84
2023/10/27 00:15:14;;;;;;;0.20;0.20;;;8.50;99.90;;;;;;5034288;28;20437;-86
2023/10/27 00:17:40;;;;;;;0.20;0.20;;;8.60;99.90;;;;;;5033006;28;20271;-85
2023/10/27 00:20:06;;;;;;;0.20;0.20;;;8.60;99.90;;;;;;5050125;28;20229;-85
2023/10/27 00:22:33;;;;;;;0.20;0.20;;;8.60;99.90;;;;;;5050208;28;20197;-84
2023/10/27 00:24:59;;;;;;;0.20;0.20;;;8.60;99.90;;;;;;5032946;28;20449;-85
2023/10/27 00:27:25;;;;;;;0.20;0.20;;;8.50;99.90;;;;;;5033882;28;20543;-85
2023/10/27 00:29:50;;;;;;;0.20;0.20;;;8.60;99.90;;;;;;5051033;28;20587;-85
2023/10/27 00:32:16;;;;;;;0.20;0.20;;;8.60;99.90;;;;;;5051043;28;20194;-85
2023/10/27 00:34:41;;;;;;;0.20;0.20;;;8.60;99.90;;;;;;5051489;28;20226;-85
2023/10/27 00:37:07;;;;;;;0.20;0.20;;;8.50;99.90;;;;;;5047000;28;20996;-85
2023/10/27 00:39:33;;;;;;;0.20;0.20;;;8.50;99.90;;;;;;5051395;28;20208;-86
2023/10/27 00:41:58;;;;;;;0.20;0.20;;;8.50;99.90;;;;;;5040859;28;20195;-85
2023/10/27 00:44:24;;;;;;;0.20;0.20;;;8.50;99.90;;;;;;5050648;28;20189;-84
2023/10/27 00:46:50;;;;;;;0.20;0.20;;;8.50;99.90;;;;;;5051704;28;20221;-86
2023/10/27 00:49:17;;;;;;;0.20;0.20;;;8.50;99.90;;;;;;5050862;28;20620;-86
2023/10/27 00:51:46;;;;;;;0.20;0.20;;;8.50;99.90;;;;;;5050909;28;20453;-85
2023/10/27 00:54:12;;;;;;;0.30;0.30;;;8.50;99.90;;;;;;5048524;28;20476;-84
2023/10/27 00:56:39;;;;;;;0.20;0.20;;;8.50;99.90;;;;;;5033135;28;20455;-85
2023/10/27 00:59:06;;;;;;;0.20;0.20;;;8.40;99.90;;;;;;5052552;28;21298;-86
2023/10/27 01:01:33;;;;;;;0.20;0.20;;;8.40;99.90;;;;;;5052043;28;20467;-85
2023/10/27 01:03:59;;;;;;;0.20;0.20;;;8.40;99.90;;;;;;5033329;28;21123;-86
2023/10/27 01:06:25;;;;;;;0.20;0.20;;;8.40;99.90;;;;;;5033848;28;20439;-86
2023/10/27 01:08:51;;;;;;;0.20;0.20;;;8.40;99.90;;;;;;5042105;28;20524;-84
2023/10/27 01:11:18;;;;;;;0.20;0.20;;;8.40;99.90;;;;;;5052297;28;20525;-85
2023/10/27 01:13:43;;;;;;;0.23;0.23;;;8.40;99.90;;;;;;5050884;28;20214;-85
2023/10/27 01:16:09;;;;;;;0.20;0.20;;;8.40;99.90;;;;;;5051455;28;20932;-85
2023/10/27 01:18:35;;;;;;;0.20;0.20;;;8.30;99.90;;;;;;5034081;28;20588;-85
2023/10/27 01:21:00;;;;;;;0.20;0.20;;;8.40;99.90;;;;;;5052353;28;20234;-85
2023/10/27 01:23:26;;;;;;;0.20;0.20;;;8.40;99.90;;;;;;5050862;28;20221;-85
2023/10/27 01:25:52;;;;;;;0.20;0.20;;;8.40;99.90;;;;;;5051487;28;20195;-85
2023/10/27 01:28:17;;;;;;;0.20;0.20;;;8.40;99.90;;;;;;5051113;28;20190;-85
2023/10/27 01:30:43;;;;;;;0.20;0.20;;;8.40;99.90;;;;;;5051393;28;20441;-85
2023/10/27 01:33:08;;;;;;;0.20;0.20;;;8.40;99.90;;;;;;5052197;28;20245;-85
2023/10/27 01:35:35;;;;;;;0.30;0.30;;;8.40;99.90;;;;;;5051112;28;20656;-85
2023/10/27 01:38:01;;;;;;;0.20;0.20;;;8.50;99.90;;;;;;5051626;28;20218;-85
2023/10/27 01:40:28;;;;;;;0.20;0.20;;;8.40;99.90;;;;;;5051580;28;20531;-85
2023/10/27 01:42:54;;;;;;;0.20;0.20;;;8.40;99.90;;;;;;5048393;28;20444;-86
2023/10/27 01:45:19;;;;;;;0.20;0.20;;;8.40;99.90;;;;;;5050351;28;20437;-85
2023/10/27 01:47:45;;;;;;;0.20;0.20;;;8.40;99.90;;;;;;5051971;28;20776;-86
2023/10/27 01:50:10;;;;;;;0.20;0.20;;;8.40;99.90;;;;;;5051504;28;20182;-85
2023/10/27 01:52:36;;;;;;;0.20;0.20;;;8.40;99.90;;;;;;5048910;28;20178;-85
2023/10/27 01:55:02;;;;;;;0.20;0.20;;;8.50;99.90;;;;;;5045558;28;20586;-86
2023/10/27 01:57:27;;;;;;;0.20;0.20;;;8.40;99.90;;;;;;5030846;28;20249;-85
2023/10/27 01:59:53;;;;;;;0.20;0.20;;;8.40;99.90;;;;;;5046127;28;20265;-85
2023/10/27 02:02:19;;;;;;;0.20;0.20;;;8.40;99.90;;;;;;5050636;28;20202;-85
2023/10/27 02:04:44;;;;;;;0.20;0.20;;;8.40;99.90;;;;;;5050598;28;20287;-85
2023/10/27 02:07:10;;;;;;;0.13;0.13;;;8.40;99.90;;;;;;5050320;28;20936;-85
2023/10/27 02:09:35;;;;;;;0.20;0.20;;;8.40;99.90;;;;;;5048607;28;20607;-85
2023/10/27 02:12:02;;;;;;;0.20;0.20;;;8.40;99.90;;;;;;5050880;28;20553;-84
2023/10/27 02:14:28;;;;;;;0.20;0.20;;;8.40;99.90;;;;;;5029974;28;20569;-85
2023/10/27 02:16:54;;;;;;;0.20;0.20;;;8.50;99.90;;;;;;5040146;28;20492;-85
2023/10/27 02:19:19;;;;;;;0.20;0.20;;;8.40;99.90;;;;;;5034815;28;20190;-85
2023/10/27 02:21:46;;;;;;;0.20;0.20;;;8.40;99.90;;;;;;5049497;28;20186;-85
2023/10/27 02:24:12;;;;;;;0.20;0.20;;;8.40;99.90;;;;;;5049706;28;20553;-85
2023/10/27 02:26:37;;;;;;;0.20;0.20;;;8.40;99.90;;;;;;5032185;28;21207;-85
2023/10/27 02:29:03;;;;;;;0.20;0.20;;;8.50;99.90;;;;;;5033020;28;20448;-85
2023/10/27 02:31:29;;;;;;;0.20;0.20;;;8.50;99.90;;;;;;5043308;28;20193;-85
2023/10/27 02:33:54;;;;;;;0.20;0.20;;;8.40;99.90;;;;;;5030984;28;20665;-83
2023/10/27 02:36:20;;;;;;;0.20;0.20;;;8.50;99.90;;;;;;5050159;28;20978;-85
2023/10/27 02:38:45;;;;;;;0.20;0.20;;;8.50;99.90;;;;;;5048359;28;20199;-85
2023/10/27 02:41:11;;;;;;;0.20;0.20;;;8.40;99.90;;;;;;5051193;28;20207;-85
2023/10/27 02:43:38;;;;;;;0.20;0.20;;;8.40;99.90;;;;;;5048981;28;20194;-85
2023/10/27 02:46:04;;;;;;;0.20;0.20;;;8.40;99.90;;;;;;5043294;28;21384;-85
2023/10/27 02:48:31;;;;;;;0.20;0.20;;;8.40;99.90;;;;;;5031027;28;20439;-85
2023/10/27 02:50:57;;;;;;;0.20;0.20;;;8.50;99.90;;;;;;5049268;28;20442;-85
2023/10/27 02:53:22;;;;;;;0.20;0.20;;;8.50;99.90;;;;;;5049648;28;20460;-85
2023/10/27 02:55:49;;;;;;;0.20;0.20;;;8.50;99.90;;;;;;5029127;28;20854;-85
2023/10/27 02:58:14;;;;;;;0.20;0.20;;;8.50;99.90;;;;;;5049476;28;20191;-86
2023/10/27 03:00:41;;;;;;;0.20;0.20;;;8.50;99.90;;;;;;5049488;28;20485;-86
2023/10/27 03:03:06;;;;;;;0.20;0.20;;;8.40;99.90;;;;;;5030541;28;20186;-85
2023/10/27 03:05:32;;;;;;;0.20;0.20;;;8.40;99.90;;;;;;5049564;28;20457;-85
2023/10/27 03:07:57;;;;;;;0.20;0.20;;;8.40;99.90;;;;;;5049778;28;20202;-85
2023/10/27 03:10:23;;;;;;;0.20;0.20;;;8.40;99.90;;;;;;5045559;28;20723;-85
2023/10/27 03:12:49;;;;;;;0.20;0.20;;;8.40;99.90;;;;;;5021433;28;20244;-86
2023/10/27 03:15:14;;;;;;;0.20;0.20;;;8.40;99.90;;;;;;5050120;28;20187;-86
2023/10/27 03:17:40;;;;;;;0.20;0.20;;;8.40;99.90;;;;;;5048721;28;20592;-85
2023/10/27 03:20:06;;;;;;;0.20;0.20;;;8.40;99.90;;;;;;5047874;28;20300;-85
2023/10/27 03:22:32;;;;;;;0.20;0.20;;;8.40;99.90;;;;;;5050304;28;20478;-85
2023/10/27 03:24:58;;;;;;;0.20;0.20;;;8.40;99.90;;;;;;5054368;28;20762;-85
2023/10/27 03:27:24;;;;;;;0.20;0.20;;;8.40;99.90;;;;;;5050410;28;20441;-86
2023/10/27 03:29:50;;;;;;;0.20;0.20;;;8.40;99.90;;;;;;5049856;28;20175;-86
2023/10/27 03:32:16;;;;;;;0.20;0.20;;;8.40;99.90;;;;;;5049487;28;20432;-86
2023/10/27 03:34:43;;;;;;;0.20;0.20;;;8.50;99.90;;;;;;5019988;28;20255;-85
2023/10/27 03:37:09;;;;;;;0.20;0.20;;;8.40;99.90;;;;;;5009681;28;20974;-86
2023/10/27 03:39:35;;;;;;;0.20;0.20;;;8.40;99.90;;;;;;5029023;28;20478;-86
2023/10/27 03:42:01;;;;;;;0.20;0.20;;;8.40;99.90;;;;;;5011301;28;20264;-85
2023/10/27 03:44:26;;;;;;;0.20;0.20;;;8.40;99.90;;;;;;5005488;28;20469;-86
2023/10/27 03:46:52;;;;;;;0.20;0.20;;;8.40;99.90;;;;;;5009184;28;20187;-86
2023/10/27 03:49:18;;;;;;;0.20;0.20;;;8.40;99.90;;;;;;5009768;28;20242;-85
2023/10/27 03:51:44;;;;;;;0.20;0.20;;;8.40;99.90;;;;;;5004135;28;20444;-87
2023/10/27 03:54:09;;;;;;;0.20;0.20;;;8.50;99.90;;;;;;5002468;28;20279;-86
2023/10/27 03:56:35;;;;;;;0.20;0.20;;;8.40;99.90;;;;;;5005601;28;20190;-86
2023/10/27 03:59:00;;;;;;;0.20;0.20;;;8.40;99.90;;;;;;4994410;28;20188;-86
2023/10/27 04:01:28;;;;;;;0.20;0.20;;;8.40;99.90;;;;;;5002715;28;20251;-86
2023/10/27 04:03:54;;;;;;;0.20;0.20;;;8.40;99.90;;;;;;5007223;28;20623;-86
2023/10/27 04:06:20;;;;;;;0.20;0.20;;;8.40;99.90;;;;;;5009533;28;20475;-86
2023/10/27 04:08:46;;;;;;;0.20;0.20;;;8.40;99.90;;;;;;5010192;28;20435;-86
2023/10/27 04:11:12;;;;;;;0.20;0.20;;;8.40;99.90;;;;;;5008618;28;20438;-86
2023/10/27 04:13:37;;;;;;;0.20;0.20;;;8.30;99.90;;;;;;5006705;28;20815;-86
2023/10/27 04:16:03;;;;;;;0.20;0.20;;;8.30;99.90;;;;;;5002976;28;20180;-85
2023/10/27 04:18:29;;;;;;;0.20;0.20;;;8.30;99.90;;;;;;5009030;28;20740;-86
2023/10/27 04:20:54;;;;;;;0.20;0.20;;;8.30;99.90;;;;;;5007927;28;20537;-86
2023/10/27 04:23:20;;;;;;;0.20;0.20;;;8.30;99.90;;;;;;5008268;28;20279;-84
2023/10/27 04:25:47;;;;;;;0.30;0.30;;;8.30;99.90;;;;;;5008827;28;20195;-86
2023/10/27 04:28:13;;;;;;;0.20;0.20;;;8.40;99.90;;;;;;5006964;28;20181;-87
2023/10/27 04:30:38;;;;;;;0.20;0.20;;;8.40;99.90;;;;;;5004004;28;20514;-86
2023/10/27 04:33:10;;;;;;;0.30;0.30;;;8.40;99.90;;;;;;5005563;28;20195;-85
2023/10/27 04:35:36;;;;;;;0.20;0.20;;;8.40;99.90;;;;;;5018649;28;20319;-87
2023/10/27 04:38:01;;;;;;;0.20;0.20;;;8.40;99.90;;;;;;5009278;28;20530;-86
2023/10/27 04:40:31;;;;;;;0.20;0.20;;;8.40;99.90;;;;;;5007849;28;20490;-86
2023/10/27 04:42:58;;;;;;;0.20;0.20;;;8.40;99.90;;;;;;5011435;28;20442;-86
2023/10/27 04:45:24;;;;;;;0.20;0.20;;;8.40;99.90;;;;;;5006685;28;20495;-84
2023/10/27 04:47:50;;;;;;;0.20;0.20;;;8.40;99.90;;;;;;5009156;28;20479;-84
2023/10/27 04:50:17;;;;;;;0.20;0.20;;;8.40;99.90;;;;;;5009419;28;20849;-87
2023/10/27 04:52:43;;;;;;;0.20;0.20;;;8.40;99.90;;;;;;5009069;28;20184;-86
2023/10/27 04:55:09;;;;;;;0.20;0.20;;;8.40;99.90;;;;;;5007570;28;20537;-86
2023/10/27 04:57:35;;;;;;;0.20;0.20;;;8.50;99.90;;;;;;5010302;28;20521;-86
2023/10/27 05:00:04;;;;;;;0.20;0.20;;;8.40;99.90;;;;;;5008130;28;20278;-85
2023/10/27 05:02:29;;;;;;;0.20;0.20;;;8.40;99.90;;;;;;5000205;28;20501;-86
2023/10/27 05:04:55;;;;;;;0.20;0.20;;;8.40;99.90;;;;;;4992769;28;20432;-85
2023/10/27 05:07:20;;;;;;;0.20;0.20;;;8.40;99.90;;;;;;5000477;28;20185;-85
2023/10/27 05:09:46;;;;;;;0.20;0.20;;;8.40;99.90;;;;;;5000746;28;20195;-86
2023/10/27 05:12:11;;;;;;;0.20;0.20;;;8.40;99.90;;;;;;4999170;28;20283;-86
2023/10/27 05:14:37;;;;;;;0.20;0.20;;;8.40;99.90;;;;;;5006964;28;20227;-85
2023/10/27 05:17:03;;;;;;;0.20;0.20;;;8.40;99.90;;;;;;5009308;28;20224;-86
2023/10/27 05:19:28;;;;;;;0.20;0.20;;;8.40;99.90;;;;;;5009652;28;20192;-87
2023/10/27 05:21:54;;;;;;;0.20;0.20;;;8.50;99.90;;;;;;5013230;28;20199;-87
2023/10/27 05:24:19;;;;;;;0.20;0.20;;;8.50;99.90;;;;;;5014161;28;20594;-87
2023/10/27 05:26:45;;;;;;;0.20;0.20;;;8.40;99.90;;;;;;5021476;28;20271;-87
2023/10/27 05:29:10;;;;;;;0.20;0.20;;;8.40;99.90;;;;;;5028751;28;20180;-86
2023/10/27 05:31:36;;;;;;;0.20;0.20;;;8.40;99.90;;;;;;5010360;28;20678;-87
2023/10/27 05:34:01;;;;;;;0.20;0.20;;;8.40;99.90;;;;;;5014422;28;20191;-86
2023/10/27 05:36:27;;;;;;;0.20;0.20;;;8.40;99.90;;;;;;5046508;28;20191;-86
2023/10/27 05:38:55;;;;;;;0.20;0.20;;;8.40;99.90;;;;;;5052364;28;20194;-86
2023/10/27 05:41:21;;;;;;;0.20;0.20;;;8.40;99.90;;;;;;5034663;28;20246;-86
2023/10/27 05:43:46;;;;;;;0.20;0.20;;;8.40;99.90;;;;;;5051597;28;20461;-86
2023/10/27 05:46:13;;;;;;;0.20;0.20;;;8.40;99.90;;;;;;5051212;28;20221;-86
2023/10/27 05:48:39;;;;;;;0.20;0.20;;;8.50;99.90;;;;;;5051862;28;20236;-86
2023/10/27 05:51:04;;;;;;;0.20;0.20;;;8.50;99.90;;;;;;5050486;28;20441;-85
2023/10/27 05:53:30;;;;;;;0.20;0.20;;;8.40;99.90;;;;;;5051650;28;20270;-87
2023/10/27 05:55:55;;;;;;;0.20;0.20;;;8.40;99.90;;;;;;5041333;28;20715;-85
2023/10/27 05:58:21;;;;;;;0.20;0.20;;;8.50;99.90;;;;;;5036954;28;20222;-87
2023/10/27 06:00:48;;;;;;;0.20;0.20;;;8.50;99.90;;;;;;5035393;28;20276;-85
2023/10/27 06:03:13;;;;;;;0.20;0.20;;;8.50;99.90;;;;;;5041142;28;20187;-86
2023/10/27 06:05:40;;;;;;;0.20;0.20;;;8.50;99.90;;;;;;5042834;28;20838;-86
2023/10/27 06:08:05;;;;;;;0.20;0.20;;;8.50;99.90;;;;;;5027727;28;20662;-85
2023/10/27 06:10:31;;;;;;;0.20;0.20;;;8.40;99.90;;;;;;5046456;28;20540;-85
2023/10/27 06:12:56;;;;;;;0.20;0.20;;;8.40;99.90;;;;;;5033041;28;20191;-85
2023/10/27 06:15:22;;;;;;;0.20;0.20;;;8.40;99.90;;;;;;5041728;28;20201;-86
2023/10/27 06:17:49;;;;;;;0.20;0.20;;;8.40;99.90;;;;;;5029880;28;20244;-86
2023/10/27 06:20:14;;;;;;;0.20;0.20;;;8.40;99.90;;;;;;5043685;28;20203;-85
2023/10/27 06:22:42;;;;;;;0.20;0.20;;;8.40;99.90;;;;;;5049425;28;20457;-86
2023/10/27 06:25:09;;;;;;;0.20;0.20;;;8.30;99.90;;;;;;5044501;28;20509;-85
2023/10/27 06:27:37;;;;;;;0.20;0.20;;;8.40;99.90;;;;;;5035652;28;20454;-86
2023/10/27 06:30:03;;;;;;;0.20;0.20;;;8.40;99.90;;;;;;5041017;28;20441;-86
2023/10/27 06:32:29;;;;;;;0.30;0.30;;;8.40;99.90;;;;;;5046671;28;20476;-86
2023/10/27 06:34:54;;;;;;;0.20;0.20;;;8.30;99.90;;;;;;5045470;28;20471;-85
2023/10/27 06:37:20;;;;;;;0.20;0.20;;;8.30;99.90;;;;;;5031478;28;20210;-85
2023/10/27 06:39:45;;;;;;;0.20;0.20;;;8.40;99.90;;;;;;5039884;28;20269;-85
2023/10/27 06:42:11;;;;;;;0.20;0.20;;;8.40;99.90;;;;;;5036734;28;20187;-87
2023/10/27 06:44:36;;;;;;;0.20;0.20;;;8.40;99.90;;;;;;5037868;28;20818;-85
2023/10/27 06:47:03;;;;;;;0.20;0.20;;;8.40;99.90;;;;;;5028969;28;20190;-85
2023/10/27 06:49:29;;;;;;;0.20;0.20;;;8.40;99.90;;;;;;5043844;28;20199;-86
2023/10/27 06:51:54;;;;;;;0.30;0.30;;;8.40;99.90;;;;;;5042511;28;20468;-85
2023/10/27 06:54:20;;;;;;;0.20;0.20;;;8.40;99.90;;;;;;5044684;28;20224;-86
2023/10/27 06:56:45;;;;;;;0.20;0.20;;;8.40;99.90;;;;;;5045430;28;20194;-85
2023/10/27 06:59:11;;;;;;;0.20;0.20;;;8.40;99.90;;;;;;5033154;28;20175;-84
2023/10/27 07:01:36;;;;;;;0.20;0.20;;;8.40;99.90;;;;;;5027272;28;20226;-86
2023/10/27 07:04:02;;;;;;;0.20;0.20;;;8.40;99.90;;;;;;5046185;28;20252;-86
2023/10/27 07:06:28;;;;;;;0.20;0.20;;;8.40;99.90;;;;;;5046436;28;20198;-85
2023/10/27 07:08:53;;;;;;;0.20;0.20;;;8.40;99.90;;;;;;5051268;28;20507;-84
2023/10/27 07:11:19;;;;;;;0.20;0.20;;;8.40;99.90;;;;;;5046345;28;20183;-84
2023/10/27 07:13:44;;;;;;;0.20;0.20;;;8.50;99.90;;;;;;5031980;28;20194;-86
2023/10/27 07:16:10;;;;;;;0.20;0.20;;;8.50;99.90;;;;;;5046988;28;20240;-85
2023/10/27 07:18:35;;;;;;;0.20;0.20;;;8.50;99.90;;;;;;5045837;28;20218;-85
2023/10/27 07:21:04;;;;;;;0.20;0.20;;;8.50;99.90;;;;;;5048222;28;20242;-85
2023/10/27 07:23:30;;;;;;;0.20;0.20;;;8.50;99.90;;;;;;5049266;28;20190;-86
2023/10/27 07:25:56;;;;;;;0.20;0.20;;;8.60;99.90;;;;;;5050820;28;20444;-86
2023/10/27 07:28:21;;;;;;;0.20;0.20;;;8.60;99.90;;;;;;5048112;28;20449;-86
2023/10/27 07:30:47;;;;;;;0.20;0.20;;;8.60;99.90;;;;;;5052561;28;20195;-85
2023/10/27 07:33:13;;;;;;;0.20;0.20;;;8.70;99.90;;;;;;5048921;28;20198;-85
2023/10/27 07:35:39;;;;;;;0.20;0.20;;;8.70;99.90;;;;;;5051721;28;20226;-86
2023/10/27 07:38:05;;;;;;;0.20;0.20;;;8.70;99.90;;;;;;5049954;28;20448;-85
2023/10/27 07:40:33;;;;;;;0.20;0.20;;;8.70;99.90;;;;;;5047575;28;20685;-84
2023/10/27 07:42:59;;;;;;;0.20;0.20;;;8.70;99.90;;;;;;5049723;28;20804;-84
2023/10/27 07:45:26;;;;;;;0.20;0.20;;;8.70;99.90;;;;;;5047040;28;20449;-84
2023/10/27 07:47:51;;;;;;;0.20;0.20;;;8.70;99.90;;;;;;5039062;28;20920;-83
2023/10/27 07:50:17;;;;;;;0.20;0.20;;;8.70;99.90;;;;;;5032623;28;20461;-83
2023/10/27 07:52:44;;;;;;;0.20;0.20;;;8.80;99.90;;;;;;5050478;28;20182;-84
2023/10/27 07:55:10;;;;;;;0.20;0.20;;;8.80;99.90;;;;;;5047918;28;20448;-84
2023/10/27 07:57:36;;;;;;;0.20;0.20;;;8.90;99.90;;;;;;5031315;28;20437;-84
2023/10/27 08:00:03;;;;;;;0.20;0.20;;;8.90;99.90;;;;;;5046609;28;20509;-84
2023/10/27 08:02:32;;;;;;;0.20;0.20;;;8.80;99.90;;;;;;5049894;28;20445;-85
2023/10/27 08:04:58;;;;;;;0.20;0.20;;;8.80;99.90;;;;;;5046457;28;20437;-85
2023/10/27 08:07:23;;;;;;;0.20;0.20;;;8.80;99.90;;;;;;5026050;28;20449;-84
2023/10/27 08:09:49;;;;;;;0.20;0.20;;;8.70;99.90;;;;;;5047455;28;20194;-84
2023/10/27 08:12:16;;;;;;;0.20;0.20;;;8.80;99.90;;;;;;5048668;28;20179;-84
2023/10/27 08:14:42;;;;;;;0.20;0.20;;;8.70;99.90;;;;;;5035279;28;20457;-84
2023/10/27 08:17:07;;;;;;;0.20;0.20;;;8.70;99.90;;;;;;5046458;28;20437;-85
2023/10/27 08:19:33;;;;;;;0.20;0.20;;;8.70;99.90;;;;;;5050316;28;20650;-84
2023/10/27 08:21:58;;;;;;;0.20;0.20;;;8.70;99.90;;;;;;5047574;28;20247;-84
2023/10/27 08:24:24;;;;;;;0.20;0.20;;;8.70;99.90;;;;;;5048668;28;20666;-84
2023/10/27 08:26:50;;;;;;;0.20;0.20;;;8.70;99.90;;;;;;5048950;28;20197;-84
2023/10/27 08:29:15;;;;;;;0.20;0.20;;;8.80;99.90;;;;;;5027750;28;20425;-84
2023/10/27 08:31:41;;;;;;;0.20;0.20;;;8.80;99.90;;;;;;5037899;28;20182;-84
2023/10/27 08:34:10;;;;;;;0.20;0.20;;;8.80;99.90;;;;;;5051698;28;20202;-85
2023/10/27 08:36:36;;;;;;;0.20;0.20;;;8.60;99.90;;;;;;5051861;28;20270;-85
2023/10/27 08:39:02;;;;;;;0.20;0.20;;;8.60;99.90;;;;;;5033936;28;20521;-85
2023/10/27 08:41:28;;;;;;;0.20;0.20;;;8.60;99.90;;;;;;5041390;28;20488;-86
2023/10/27 08:43:54;;;;;;;0.20;0.20;;;8.60;99.90;;;;;;5035074;28;20208;-86
2023/10/27 08:46:20;;;;;;;0.20;0.20;;;8.70;99.90;;;;;;5051260;28;20445;-85
2023/10/27 08:48:47;;;;;;;0.20;0.20;;;8.80;99.90;;;;;;5050721;28;20436;-84
2023/10/27 08:51:14;;;;;;;0.20;0.20;;;8.90;99.90;;;;;;5032616;28;20436;-85
2023/10/27 08:53:41;;;;;;;0.20;0.20;;;8.90;99.90;;;;;;5028319;28;21026;-85
2023/10/27 08:56:12;;;;;;;0.20;0.20;;;9.00;99.90;;;;;;5047550;28;20813;-85
2023/10/27 08:58:49;;;;;;;0.10;0.10;;;8.90;99.90;;;;;;5049829;28;20441;-84
2023/10/27 09:01:15;;;;;;;0.20;0.20;;;8.80;99.90;;;;;;5033460;28;20484;-82
2023/10/27 09:03:40;;;;;;;0.20;0.20;;;8.90;99.90;;;;;;5034428;28;20931;-84
2023/10/27 09:06:06;;;;;;;0.20;0.20;;;8.90;99.90;;;;;;5047341;28;20233;-83
2023/10/27 09:08:32;;;;;;;0.20;0.20;;;8.90;99.90;;;;;;5052367;28;20183;-83
2023/10/27 09:10:57;;;;;;;0.20;0.20;;;8.80;99.90;;;;;;5050905;28;20262;-83
2023/10/27 09:13:24;;;;;;;0.20;0.20;;;8.90;99.90;;;;;;5052237;28;20443;-82
2023/10/27 09:15:51;;;;;;;0.20;0.20;;;8.80;99.90;;;;;;5050379;28;20201;-82
2023/10/27 09:18:18;;;;;;;0.20;0.20;;;8.80;99.90;;;;;;5049870;28;20801;-82
2023/10/27 09:20:52;;;;;;;0.20;0.20;;;8.90;99.90;;;;;;5032445;28;20477;-83
2023/10/27 09:23:19;;;;;;;0.20;0.20;;;8.90;99.90;;;;;;5056064;28;20441;-84
2023/10/27 09:25:46;;;;;;;0.20;0.20;;;8.90;99.90;;;;;;5061720;28;20970;-82
2023/10/27 09:28:11;;;;;;;0.20;0.20;;;8.90;99.90;;;;;;5049270;28;20795;-82
2023/10/27 09:30:39;;;;;;;0.20;0.20;;;9.00;99.90;;;;;;5045816;28;20453;-82
2023/10/27 09:33:13;;;;;;;0.20;0.20;;;8.90;99.90;;;;;;5045061;28;20202;-82
2023/10/27 09:35:39;;;;;;;0.20;0.20;;;8.80;99.90;;;;;;5054143;28;20480;-82
2023/10/27 09:38:05;;;;;;;0.20;0.20;;;8.90;99.90;;;;;;5050081;28;20499;-81
2023/10/27 09:40:31;;;;;;;0.20;0.20;;;8.90;99.90;;;;;;5045939;28;21181;-82
2023/10/27 09:43:00;;;;;;;0.20;0.20;;;8.90;99.90;;;;;;5031636;28;20186;-81
2023/10/27 09:45:27;;;;;;;0.20;0.20;;;8.90;99.90;;;;;;5051429;28;20441;-81
2023/10/27 09:48:03;;;;;;;0.20;0.20;;;8.90;99.90;;;;;;5052325;28;20421;-82
2023/10/27 09:50:30;;;;;;;0.20;0.20;;;8.90;99.90;;;;;;5045680;28;20421;-81
2023/10/27 09:53:02;;;;;;;0.20;0.20;;;8.90;99.90;;;;;;5052466;28;20809;-81
2023/10/27 09:55:29;;;;;;;0.20;0.20;;;8.90;99.90;;;;;;5047924;28;20434;-82
2023/10/27 09:57:55;;;;;;;0.20;0.20;;;8.80;99.90;;;;;;5051476;28;20448;-82
2023/10/27 10:00:29;;;;;;;0.20;0.20;;;8.80;99.90;;;;;;5051392;28;20721;-82
2023/10/27 10:02:57;;;;;;;0.20;0.20;;;8.80;99.90;;;;;;5052527;28;20904;-82
2023/10/27 10:05:23;;;;;;;0.20;0.20;;;8.90;99.90;;;;;;5051720;28;20792;-81
2023/10/27 10:07:56;;;;;;;0.20;0.20;;;8.90;99.90;;;;;;5047176;28;20456;-82
2023/10/27 10:10:29;;;;;;;0.20;0.20;;;8.80;99.90;;;;;;5051251;28;20445;-83
2023/10/27 10:13:09;;;;;;;0.20;0.20;;;8.90;99.90;;;;;;5048348;28;20490;-83
2023/10/27 10:15:43;;;;;;;0.20;0.20;;;8.90;99.90;;;;;;5051059;28;21012;-83
2023/10/27 10:18:35;;;;;;;0.20;0.20;;;8.90;99.90;;;;;;5053213;28;20452;-81
2023/10/27 10:21:01;;;;;;;0.20;0.20;;;8.90;99.90;;;;;;5034432;28;20481;-82
2023/10/27 10:23:42;;;;;;;0.20;0.20;;;8.90;99.90;;;;;;5051105;28;20520;-85
2023/10/27 10:26:07;;;;;;;0.20;0.20;;;8.90;99.90;;;;;;5051594;28;21009;-88
2023/10/27 10:28:34;;;;;;;0.20;0.20;;;8.90;99.90;;;;;;5032050;28;20512;-88
2023/10/27 10:31:13;;;;;;;0.20;0.20;;;8.90;99.90;;;;;;5052761;28;20195;-87
2023/10/27 10:33:39;;;;;;;0.20;0.20;;;8.90;99.90;;;;;;5053282;28;20429;-88
2023/10/27 10:36:22;;;;;;;0.20;0.20;;;9.00;99.90;;;;;;5053258;28;20477;-87
2023/10/27 10:38:51;;;;;;;0.20;0.20;;;9.10;99.90;;;;;;5047830;28;20179;-86
2023/10/27 10:41:18;;;;;;;0.20;0.20;;;9.10;99.90;;;;;;5050241;28;21036;-88
2023/10/27 10:43:44;;;;;;;0.20;0.20;;;9.10;99.90;;;;;;5049340;28;20921;-87
2023/10/27 10:46:11;;;;;;;0.30;0.30;;;9.10;99.90;;;;;;5052239;28;20448;-89
2023/10/27 10:48:41;;;;;;;0.20;0.20;;;9.10;99.90;;;;;;5039698;28;20191;-88
2023/10/27 10:51:15;;;;;;;0.20;0.20;;;9.00;99.90;;;;;;5045574;28;20426;-89
2023/10/27 10:53:42;;;;;;;0.20;0.20;;;9.00;99.90;;;;;;5036410;28;21198;-90
2023/10/27 10:56:08;;;;;;;0.20;0.20;;;8.90;99.90;;;;;;5055468;28;20444;-87
2023/10/27 10:58:36;;;;;;;0.20;0.20;;;8.90;99.90;;;;;;5039899;28;20444;-89
2023/10/27 11:01:04;;;;;;;0.20;0.20;;;8.90;99.90;;;;;;5034143;28;20623;-88
2023/10/27 11:03:34;;;;;;;0.20;0.20;;;8.90;99.90;;;;;;5053461;28;20433;-88
2023/10/27 11:06:05;;;;;;;0.20;0.20;;;8.90;99.90;;;;;;5051093;28;20460;-88
2023/10/27 11:08:34;;;;;;;0.20;0.20;;;8.90;99.90;;;;;;5050937;28;20467;-87
2023/10/27 11:11:05;;;;;;;0.20;0.20;;;8.80;99.90;;;;;;5052352;28;20566;-90
2023/10/27 11:13:33;;;;;;;0.20;0.20;;;8.80;99.90;;;;;;5052903;28;20519;-88
2023/10/27 11:16:02;;;;;;;0.20;0.20;;;8.80;99.90;;;;;;5058859;28;20464;-91
2023/10/27 11:18:29;;;;;;;0.20;0.20;;;8.80;99.90;;;;;;5035347;28;20448;-88
2023/10/27 11:20:54;;;;;;;0.20;0.20;;;8.80;99.90;;;;;;5052134;28;20541;-88
2023/10/27 11:23:20;;;;;;;0.20;0.20;;;8.80;99.90;;;;;;5049430;28;20448;-88
2023/10/27 11:25:45;;;;;;;0.20;0.20;;;8.80;99.90;;;;;;5054116;28;20200;-88
2023/10/27 11:28:26;;;;;;;0.20;0.20;;;8.90;99.90;;;;;;5057077;28;20189;-89
2023/10/27 11:31:10;;;;;;;0.20;0.20;;;8.90;99.90;;;;;;5050122;28;20182;-85
2023/10/27 11:34:05;;;;;;;0.20;0.20;;;8.90;99.90;;;;;;5051424;28;20440;-86
2023/10/27 11:36:35;;;;;;;0.20;0.20;;;9.00;99.90;;;;;;5051881;28;20441;-89
2023/10/27 11:39:13;;;;;;;0.20;0.20;;;9.00;99.90;;;;;;5032036;28;20433;-90
2023/10/27 11:41:40;;;;;;;0.30;0.30;;;8.90;99.90;;;;;;5047364;28;20465;-87
2023/10/27 11:44:06;;;;;;;0.20;0.20;;;8.90;99.90;;;;;;5052184;28;20463;-89
2023/10/27 11:46:33;;;;;;;0.20;0.20;;;9.00;99.90;;;;;;5038747;28;20433;-88
2023/10/27 11:49:00;;;;;;;0.20;0.20;;;9.00;99.90;;;;;;5051771;28;20554;-90
2023/10/27 11:51:32;;;;;;;0.20;0.20;;;8.90;99.90;;;;;;5053140;28;20449;-92
2023/10/27 11:53:57;;;;;;;0.20;0.20;;;9.00;99.90;;;;;;5051876;28;20623;-87
2023/10/27 11:56:23;;;;;;;0.20;0.20;;;9.00;99.90;;;;;;5046339;28;20508;-86
2023/10/27 11:58:49;;;;;;;0.20;0.20;;;8.90;99.90;;;;;;5053529;28;20187;-87
2023/10/27 12:01:14;;;;;;;0.20;0.20;;;9.00;99.90;;;;;;5051410;28;20229;-87
2023/10/27 12:03:40;;;;;;;0.20;0.20;;;9.10;99.90;;;;;;5035031;28;20717;-88
2023/10/27 12:06:06;;;;;;;0.20;0.20;;;9.20;99.90;;;;;;5056329;28;20215;-91
2023/10/27 12:08:31;;;;;;;0.20;0.20;;;9.10;99.90;;;;;;5055188;28;20439;-89
2023/10/27 12:10:59;;;;;;;0.20;0.20;;;9.00;99.90;;;;;;5056466;28;20566;-89
2023/10/27 12:13:25;;;;;;;0.20;0.20;;;9.00;99.90;;;;;;5041633;28;20185;-87
2023/10/27 12:15:50;;;;;;;0.20;0.20;;;9.00;99.90;;;;;;5052642;28;20495;-87
2023/10/27 12:18:16;;;;;;;0.20;0.20;;;9.00;99.90;;;;;;5055864;28;20182;-87
2023/10/27 12:20:43;;;;;;;0.20;0.20;;;9.00;99.90;;;;;;5055554;28;20637;-91
2023/10/27 12:23:09;;;;;;;0.20;0.20;;;8.90;99.90;;;;;;5039020;28;20432;-92
2023/10/27 12:25:35;;;;;;;0.20;0.20;;;8.80;99.90;;;;;;5036686;28;20468;-88
2023/10/27 12:28:01;;;;;;;0.20;0.20;;;8.90;99.90;;;;;;5054758;28;20494;-86
2023/10/27 12:30:27;;;;;;;0.20;0.20;;;9.00;99.90;;;;;;5059521;28;20441;-86
2023/10/27 12:32:53;;;;;;;0.20;0.20;;;9.00;99.90;;;;;;5054460;28;20772;-87
2023/10/27 12:35:21;;;;;;;0.20;0.20;;;9.00;99.90;;;;;;5036355;28;20226;-88
2023/10/27 12:37:47;;;;;;;0.20;0.20;;;9.10;99.90;;;;;;5051669;28;20487;-87
2023/10/27 12:40:13;;;;;;;0.20;0.20;;;9.10;99.90;;;;;;5053418;28;20879;-86
2023/10/27 12:42:39;;;;;;;0.20;0.20;;;9.10;99.90;;;;;;5052037;28;20444;-87
2023/10/27 12:45:05;;;;;;;0.20;0.20;;;9.10;99.90;;;;;;5053790;28;20198;-86
2023/10/27 12:47:31;;;;;;;0.20;0.20;;;9.20;99.90;;;;;;5053227;28;20693;-87
2023/10/27 12:49:58;;;;;;;0.20;0.20;;;9.30;99.90;;;;;;5036045;28;20425;-88
2023/10/27 12:52:26;;;;;;;0.20;0.20;;;9.20;99.90;;;;;;5038134;28;20460;-87
2023/10/27 12:54:51;;;;;;;0.20;0.20;;;9.20;99.90;;;;;;5035670;28;20948;-87